Pagrindinis puslapis
METAR-TAF:

METAR-TAF

Oro uostai :

Vardė, Norvegija

platuma: 70-21N, ilguma: 031-03E, Aukštis: 12 m

Dabartinis oras

Ataskaita buvo paskelbta 37 minutes, ne 22:20 UTC
Vėjas 4 kt iš Pietryčių
Temperatūra 12°C
Drėgmė 88%
Slėgis 1011 hPa
Matomumas 10 km arba daugiau

METAR: ENSS 022220Z AUTO 13004KT 9999 NCD 12/10 Q1011 RMK WIND 0500FT 20017KT

Laikas: 00:57 (22:57 UTC)


TAF: trūkstamas

Orai ataskaitas ir orų prognozės (METAR, TAF).

turimą stotys yra geltonos ir raudonos taškus žemėlapyje.

Perkelti pele per norėdami pamatyti stoties vardą.

Tada spustelėkite, norėdami matyti oro stebėjimo ir prognozės.

Norėdami pakeisti žemėlapį: spustelėkite ant žalios mygtukų su juodo kryžiaus žemyn,; žalią mygtuką su brūkšneliu, jei norite nutolinti; arba žalių rodyklių gretimoms žemėlapius.


METAR-TAF: